sensor_id;sensor_type;location;lat;lon;timestamp;pressure;altitude;pressure_sealevel;temperature;humidity
62712;BME280;48772;55.586;37.730;2023-12-14T00:01:25;99968.69;;;-11.30;100.00
62712;BME280;48772;55.586;37.730;2023-12-14T00:03:51;99995.41;;;-11.21;100.00
62712;BME280;48772;55.586;37.730;2023-12-14T00:06:17;99969.41;;;-11.42;100.00
62712;BME280;48772;55.586;37.730;2023-12-14T00:08:43;99968.59;;;-11.38;100.00
62712;BME280;48772;55.586;37.730;2023-12-14T00:11:11;99979.75;;;-11.36;100.00
62712;BME280;48772;55.586;37.730;2023-12-14T00:13:37;100015.91;;;-11.27;100.00
62712;BME280;48772;55.586;37.730;2023-12-14T00:16:04;99947.75;;;-11.62;100.00
62712;BME280;48772;55.586;37.730;2023-12-14T00:18:30;99961.59;;;-11.49;100.00
62712;BME280;48772;55.586;37.730;2023-12-14T00:20:59;100009.84;;;-11.30;100.00
62712;BME280;48772;55.586;37.730;2023-12-14T00:23:24;99992.63;;;-11.36;100.00
62712;BME280;48772;55.586;37.730;2023-12-14T00:25:51;99991.00;;;-11.31;100.00
62712;BME280;48772;55.586;37.730;2023-12-14T00:28:17;99975.44;;;-11.40;100.00
62712;BME280;48772;55.586;37.730;2023-12-14T00:30:43;99990.16;;;-11.28;100.00
62712;BME280;48772;55.586;37.730;2023-12-14T00:33:09;99941.66;;;-11.70;100.00
62712;BME280;48772;55.586;37.730;2023-12-14T00:35:35;99976.34;;;-11.36;100.00
62712;BME280;48772;55.586;37.730;2023-12-14T00:38:01;99956.44;;;-11.54;100.00
62712;BME280;48772;55.586;37.730;2023-12-14T00:40:27;99987.50;;;-11.34;100.00
62712;BME280;48772;55.586;37.730;2023-12-14T00:42:53;100006.38;;;-11.35;100.00
62712;BME280;48772;55.586;37.730;2023-12-14T00:45:19;100001.31;;;-11.25;100.00
62712;BME280;48772;55.586;37.730;2023-12-14T00:47:45;99971.16;;;-11.39;100.00
62712;BME280;48772;55.586;37.730;2023-12-14T00:50:11;99966.75;;;-11.48;100.00
62712;BME280;48772;55.586;37.730;2023-12-14T00:52:37;99933.16;;;-11.64;100.00
62712;BME280;48772;55.586;37.730;2023-12-14T00:55:03;100004.72;;;-11.27;100.00
62712;BME280;48772;55.586;37.730;2023-12-14T00:57:33;99984.13;;;-11.29;100.00
62712;BME280;48772;55.586;37.730;2023-12-14T00:59:58;99970.31;;;-11.37;100.00
62712;BME280;48772;55.586;37.730;2023-12-14T01:02:24;99978.13;;;-11.31;100.00
62712;BME280;48772;55.586;37.730;2023-12-14T01:04:50;99946.97;;;-11.53;100.00
62712;BME280;48772;55.586;37.730;2023-12-14T01:07:16;99993.59;;;-11.29;100.00
62712;BME280;48772;55.586;37.730;2023-12-14T01:09:42;99979.84;;;-11.30;100.00
62712;BME280;48772;55.586;37.730;2023-12-14T01:12:08;99923.75;;;-11.64;100.00
62712;BME280;48772;55.586;37.730;2023-12-14T01:14:34;99960.94;;;-11.33;100.00
62712;BME280;48772;55.586;37.730;2023-12-14T01:17:00;99950.53;;;-11.44;100.00
62712;BME280;48772;55.586;37.730;2023-12-14T01:19:26;99922.09;;;-11.56;100.00
62712;BME280;48772;55.586;37.730;2023-12-14T01:21:53;99981.69;;;-11.20;100.00
62712;BME280;48772;55.586;37.730;2023-12-14T01:24:21;99984.28;;;-11.17;100.00
62712;BME280;48772;55.586;37.730;2023-12-14T01:26:47;99930.78;;;-11.45;100.00
62712;BME280;48772;55.586;37.730;2023-12-14T01:29:13;99969.47;;;-11.39;100.00
62712;BME280;48772;55.586;37.730;2023-12-14T01:31:39;99954.81;;;-11.44;100.00
62712;BME280;48772;55.586;37.730;2023-12-14T01:34:04;99965.19;;;-11.37;100.00
62712;BME280;48772;55.586;37.730;2023-12-14T01:36:30;99990.25;;;-11.21;100.00
62712;BME280;48772;55.586;37.730;2023-12-14T01:38:56;99977.25;;;-11.31;100.00
62712;BME280;48772;55.586;37.730;2023-12-14T01:41:22;99968.66;;;-11.35;100.00
62712;BME280;48772;55.586;37.730;2023-12-14T01:43:48;99992.81;;;-11.21;100.00
62712;BME280;48772;55.586;37.730;2023-12-14T01:46:14;99975.47;;;-11.37;100.00
62712;BME280;48772;55.586;37.730;2023-12-14T01:48:42;99988.47;;;-11.23;100.00
62712;BME280;48772;55.586;37.730;2023-12-14T01:51:08;99954.88;;;-11.38;100.00
62712;BME280;48772;55.586;37.730;2023-12-14T01:53:34;99954.81;;;-11.44;100.00
62712;BME280;48772;55.586;37.730;2023-12-14T01:56:00;99946.16;;;-11.51;100.00
62712;BME280;48772;55.586;37.730;2023-12-14T01:58:26;99956.56;;;-11.40;100.00
62712;BME280;48772;55.586;37.730;2023-12-14T02:03:25;99954.00;;;-11.42;100.00
62712;BME280;48772;55.586;37.730;2023-12-14T02:05:51;99968.59;;;-11.38;100.00
62712;BME280;48772;55.586;37.730;2023-12-14T02:08:17;99978.97;;;-11.29;100.00
62712;BME280;48772;55.586;37.730;2023-12-14T02:10:43;99979.03;;;-11.26;100.00
62712;BME280;48772;55.586;37.730;2023-12-14T02:13:09;99933.28;;;-11.52;100.00
62712;BME280;48772;55.586;37.730;2023-12-14T02:15:35;99910.88;;;-11.65;100.00
62712;BME280;48772;55.586;37.730;2023-12-14T02:18:02;99930.72;;;-11.51;100.00
62712;BME280;48772;55.586;37.730;2023-12-14T02:20:28;99953.13;;;-11.41;100.00
62712;BME280;48772;55.586;37.730;2023-12-14T02:22:54;99958.22;;;-11.44;100.00
62712;BME280;48772;55.586;37.730;2023-12-14T02:25:22;99908.34;;;-11.62;100.00
62712;BME280;48772;55.586;37.730;2023-12-14T02:27:49;99930.72;;;-11.51;100.00
62712;BME280;48772;55.586;37.730;2023-12-14T02:30:16;99985.97;;;-11.19;100.00
62712;BME280;48772;55.586;37.730;2023-12-14T02:32:42;99912.63;;;-11.63;100.00
62712;BME280;48772;55.586;37.730;2023-12-14T02:35:08;99927.28;;;-11.53;100.00
62712;BME280;48772;55.586;37.730;2023-12-14T02:37:35;99915.19;;;-11.63;100.00
62712;BME280;48772;55.586;37.730;2023-12-14T02:40:06;99885.88;;;-11.77;100.00
62712;BME280;48772;55.586;37.730;2023-12-14T02:42:33;99975.63;;;-11.22;100.00
62712;BME280;48772;55.586;37.730;2023-12-14T02:44:59;99960.13;;;-11.31;100.00
62712;BME280;48772;55.586;37.730;2023-12-14T02:47:30;99945.38;;;-11.44;100.00
62712;BME280;48772;55.586;37.730;2023-12-14T02:49:56;99939.19;;;-11.58;100.00
62712;BME280;48772;55.586;37.730;2023-12-14T02:52:22;99986.72;;;-11.29;100.00
62712;BME280;48772;55.586;37.730;2023-12-14T02:54:48;99941.91;;;-11.49;100.00
62712;BME280;48772;55.586;37.730;2023-12-14T02:57:14;99995.38;;;-11.22;100.00
62712;BME280;48772;55.586;37.730;2023-12-14T02:59:40;99943.63;;;-11.48;100.00
62712;BME280;48772;55.586;37.730;2023-12-14T03:02:06;99987.63;;;-11.24;100.00
62712;BME280;48772;55.586;37.730;2023-12-14T03:04:32;99967.81;;;-11.32;100.00
62712;BME280;48772;55.586;37.730;2023-12-14T03:06:58;99965.19;;;-11.37;100.00
62712;BME280;48772;55.586;37.730;2023-12-14T03:09:28;99957.56;;;-11.29;100.00
62712;BME280;48772;55.586;37.730;2023-12-14T03:11:55;99954.91;;;-11.35;100.00
62712;BME280;48772;55.586;37.730;2023-12-14T03:14:21;99951.44;;;-11.39;100.00
62712;BME280;48772;55.586;37.730;2023-12-14T03:16:47;99967.72;;;-11.40;100.00
62712;BME280;48772;55.586;37.730;2023-12-14T03:19:17;99983.34;;;-11.26;100.00
62712;BME280;48772;55.586;37.730;2023-12-14T03:21:43;99959.19;;;-11.34;100.00
62712;BME280;48772;55.586;37.730;2023-12-14T03:24:09;99974.78;;;-11.22;100.00
62712;BME280;48772;55.586;37.730;2023-12-14T03:26:35;99906.59;;;-11.65;100.00
62712;BME280;48772;55.586;37.730;2023-12-14T03:29:01;99990.25;;;-11.18;100.00
62712;BME280;48772;55.586;37.730;2023-12-14T03:31:27;99981.59;;;-11.26;100.00
62712;BME280;48772;55.586;37.730;2023-12-14T03:33:53;99984.25;;;-11.20;100.00
62712;BME280;48772;55.586;37.730;2023-12-14T03:36:19;99961.78;;;-11.33;100.00
62712;BME280;48772;55.586;37.730;2023-12-14T03:38:45;99970.44;;;-11.25;100.00
62712;BME280;48772;55.586;37.730;2023-12-14T03:41:11;99938.50;;;-11.45;100.00
62712;BME280;48772;55.586;37.730;2023-12-14T03:43:37;99948.00;;;-11.41;100.00
62712;BME280;48772;55.586;37.730;2023-12-14T03:46:03;99949.72;;;-11.40;100.00
62712;BME280;48772;55.586;37.730;2023-12-14T03:48:32;99942.97;;;-11.32;100.00
62712;BME280;48772;55.586;37.730;2023-12-14T03:51:02;99978.16;;;-11.25;100.00
62712;BME280;48772;55.586;37.730;2023-12-14T03:53:28;99938.59;;;-11.36;100.00
62712;BME280;48772;55.586;37.730;2023-12-14T03:55:55;99967.78;;;-11.34;100.00
62712;BME280;48772;55.586;37.730;2023-12-14T03:58:21;99988.59;;;-11.14;100.00
62712;BME280;48772;55.586;37.730;2023-12-14T04:00:47;99961.78;;;-11.33;100.00
62712;BME280;48772;55.586;37.730;2023-12-14T04:03:13;99949.72;;;-11.40;100.00
62712;BME280;48772;55.586;37.730;2023-12-14T04:05:39;99991.94;;;-11.21;100.00
62712;BME280;48772;55.586;37.730;2023-12-14T04:08:05;99970.38;;;-11.34;100.00
62712;BME280;48772;55.586;37.730;2023-12-14T04:10:31;99973.03;;;-11.25;100.00
62712;BME280;48772;55.586;37.730;2023-12-14T04:12:57;99934.25;;;-11.43;100.00
62712;BME280;48772;55.586;37.730;2023-12-14T04:15:23;99936.03;;;-11.36;100.00
62712;BME280;48772;55.586;37.730;2023-12-14T04:17:49;99970.44;;;-11.25;100.00
62712;BME280;48772;55.586;37.730;2023-12-14T04:20:15;99960.25;;;-11.19;100.00
62712;BME280;48772;55.586;37.730;2023-12-14T04:22:43;99910.19;;;-11.46;100.00
62712;BME280;48772;55.586;37.730;2023-12-14T04:25:09;99966.31;;;-11.11;100.00
62712;BME280;48772;55.586;37.730;2023-12-14T04:27:35;99951.69;;;-11.16;100.00
62712;BME280;48772;55.586;37.730;2023-12-14T04:30:01;99916.25;;;-11.40;100.00
62712;BME280;48772;55.586;37.730;2023-12-14T04:32:29;99950.00;;;-11.14;100.00
62712;BME280;48772;55.586;37.730;2023-12-14T04:34:55;99955.16;;;-11.13;100.00
62712;BME280;48772;55.586;37.730;2023-12-14T04:37:21;99965.50;;;-11.07;100.00
62712;BME280;48772;55.586;37.730;2023-12-14T04:39:47;99974.13;;;-11.05;100.00
62712;BME280;48772;55.586;37.730;2023-12-14T04:42:13;99935.28;;;-11.27;100.00
62712;BME280;48772;55.586;37.730;2023-12-14T04:44:39;99946.56;;;-11.13;100.00
62712;BME280;48772;55.586;37.730;2023-12-14T04:47:05;99949.09;;;-11.16;100.00
62712;BME280;48772;55.586;37.730;2023-12-14T04:49:30;99964.63;;;-11.09;100.00
62712;BME280;48772;55.586;37.730;2023-12-14T04:51:56;99952.56;;;-11.14;100.00
62712;BME280;48772;55.586;37.730;2023-12-14T04:54:22;99935.31;;;-11.23;100.00
62712;BME280;48772;55.586;37.730;2023-12-14T04:56:48;99940.50;;;-11.21;100.00
62712;BME280;48772;55.586;37.730;2023-12-14T04:59:14;99954.31;;;-11.12;100.00
62712;BME280;48772;55.586;37.730;2023-12-14T05:01:40;99964.63;;;-11.09;100.00
62712;BME280;48772;55.586;37.730;2023-12-14T05:04:06;99931.75;;;-11.35;100.00
62712;BME280;48772;55.586;37.730;2023-12-14T05:06:32;99923.25;;;-11.28;100.00
62712;BME280;48772;55.586;37.730;2023-12-14T05:08:59;99928.44;;;-11.25;100.00
62712;BME280;48772;55.586;37.730;2023-12-14T05:11:27;99977.56;;;-11.06;100.00
62712;BME280;48772;55.586;37.730;2023-12-14T05:13:53;99936.94;;;-11.32;100.00
62712;BME280;48772;55.586;37.730;2023-12-14T05:16:19;99974.09;;;-11.06;100.00
62712;BME280;48772;55.586;37.730;2023-12-14T05:18:45;99943.81;;;-11.30;100.00
62712;BME280;48772;55.586;37.730;2023-12-14T05:21:16;99963.63;;;-11.23;100.00
62712;BME280;48772;55.586;37.730;2023-12-14T05:23:43;99978.31;;;-11.13;100.00
62712;BME280;48772;55.586;37.730;2023-12-14T05:26:09;99996.38;;;-11.11;100.00
62712;BME280;48772;55.586;37.730;2023-12-14T05:28:35;99954.06;;;-11.34;100.00
62712;BME280;48772;55.586;37.730;2023-12-14T05:31:01;99981.75;;;-11.11;100.00
62712;BME280;48772;55.586;37.730;2023-12-14T05:33:28;99985.19;;;-11.12;100.00
62712;BME280;48772;55.586;37.730;2023-12-14T05:35:54;99996.31;;;-11.14;100.00
62712;BME280;48772;55.586;37.730;2023-12-14T05:38:20;99964.47;;;-11.25;100.00
62712;BME280;48772;55.586;37.730;2023-12-14T05:40:46;99955.00;;;-11.28;100.00
62712;BME280;48772;55.586;37.730;2023-12-14T05:43:12;99975.63;;;-11.22;100.00
62712;BME280;48772;55.586;37.730;2023-12-14T05:45:38;99958.47;;;-11.23;100.00
62712;BME280;48772;55.586;37.730;2023-12-14T05:48:04;99973.19;;;-11.11;100.00
62712;BME280;48772;55.586;37.730;2023-12-14T05:50:31;99967.09;;;-11.18;100.00
62712;BME280;48772;55.586;37.730;2023-12-14T05:52:57;99998.91;;;-11.13;100.00
62712;BME280;48772;55.586;37.730;2023-12-14T05:55:23;99987.81;;;-11.07;100.00
62712;BME280;48772;55.586;37.730;2023-12-14T05:57:49;99991.28;;;-11.04;100.00
62712;BME280;48772;55.586;37.730;2023-12-14T06:00:15;99983.53;;;-11.05;100.00
62712;BME280;48772;55.586;37.730;2023-12-14T06:02:41;99980.97;;;-11.05;100.00
62712;BME280;48772;55.586;37.730;2023-12-14T06:05:09;99967.13;;;-11.15;100.00
62712;BME280;48772;55.586;37.730;2023-12-14T06:08:05;99924.84;;;-11.39;100.00
62712;BME280;48772;55.586;37.730;2023-12-14T06:10:45;99992.16;;;-11.02;100.00
62712;BME280;48772;55.586;37.730;2023-12-14T06:13:24;100000.66;;;-11.10;100.00
62712;BME280;48772;55.586;37.730;2023-12-14T06:15:53;99916.19;;;-11.49;100.00
62712;BME280;48772;55.586;37.730;2023-12-14T06:18:19;99964.53;;;-11.18;100.00
62712;BME280;48772;55.586;37.730;2023-12-14T06:20:45;99936.03;;;-11.39;100.00
62712;BME280;48772;55.586;37.730;2023-12-14T06:23:11;99909.25;;;-11.56;100.00
62712;BME280;48772;55.586;37.730;2023-12-14T06:25:36;99987.88;;;-11.00;100.00
62712;BME280;48772;55.586;37.730;2023-12-14T06:28:02;99972.41;;;-11.06;100.00
62712;BME280;48772;55.586;37.730;2023-12-14T06:30:28;99996.47;;;-11.01;100.00
62712;BME280;48772;55.586;37.730;2023-12-14T06:32:54;99996.44;;;-11.04;100.00
62712;BME280;48772;55.586;37.730;2023-12-14T06:35:21;100009.28;;;-11.05;100.00
62712;BME280;48772;55.586;37.730;2023-12-14T06:37:47;99989.53;;;-11.06;100.00
62712;BME280;48772;55.586;37.730;2023-12-14T06:40:13;99975.78;;;-11.10;100.00
62712;BME280;48772;55.586;37.730;2023-12-14T06:42:39;99990.44;;;-11.01;100.00
62712;BME280;48772;55.586;37.730;2023-12-14T06:45:06;99920.59;;;-11.36;100.00
62712;BME280;48772;55.586;37.730;2023-12-14T06:47:32;99994.78;;;-10.99;100.00
62712;BME280;48772;55.586;37.730;2023-12-14T06:49:58;99969.81;;;-11.07;100.00
62712;BME280;48772;55.586;37.730;2023-12-14T06:52:24;99965.50;;;-11.07;100.00
62712;BME280;48772;55.586;37.730;2023-12-14T06:54:50;99979.34;;;-10.99;100.00
62712;BME280;48772;55.586;37.730;2023-12-14T06:57:16;100001.72;;;-10.93;100.00
62712;BME280;48772;55.586;37.730;2023-12-14T06:59:42;100001.69;;;-10.92;100.00
62712;BME280;48772;55.586;37.730;2023-12-14T07:02:08;99930.16;;;-11.24;100.00
62712;BME280;48772;55.586;37.730;2023-12-14T07:04:34;99913.72;;;-11.37;100.00
62712;BME280;48772;55.586;37.730;2023-12-14T07:07:00;99976.59;;;-11.15;100.00
62712;BME280;48772;55.586;37.730;2023-12-14T07:09:25;99999.97;;;-10.93;100.00
62712;BME280;48772;55.586;37.730;2023-12-14T07:11:51;100009.44;;;-10.89;100.00
62712;BME280;48772;55.586;37.730;2023-12-14T07:14:17;99974.88;;;-11.13;100.00
62712;BME280;48772;55.586;37.730;2023-12-14T07:16:45;99990.47;;;-11.00;100.00
62712;BME280;48772;55.586;37.730;2023-12-14T07:19:11;99985.34;;;-10.97;100.00
62712;BME280;48772;55.586;37.730;2023-12-14T07:21:37;99975.94;;;-10.95;100.00
62712;BME280;48772;55.586;37.730;2023-12-14T07:24:03;100002.63;;;-10.85;100.00
62712;BME280;48772;55.586;37.730;2023-12-14T07:26:29;99986.19;;;-10.99;100.00
62712;BME280;48772;55.586;37.730;2023-12-14T07:28:55;100027.59;;;-10.79;100.00
62712;BME280;48772;55.586;37.730;2023-12-14T07:31:21;100002.53;;;-10.94;100.00
62712;BME280;48772;55.586;37.730;2023-12-14T07:33:47;99989.63;;;-10.99;100.00
62712;BME280;48772;55.586;37.730;2023-12-14T07:36:13;100001.75;;;-10.86;100.00
62712;BME280;48772;55.586;37.730;2023-12-14T07:38:39;100019.00;;;-10.78;100.00
62712;BME280;48772;55.586;37.730;2023-12-14T07:41:05;100016.34;;;-10.86;100.00
62712;BME280;48772;55.586;37.730;2023-12-14T07:43:31;100025.88;;;-10.76;100.00
62712;BME280;48772;55.586;37.730;2023-12-14T07:45:57;100015.44;;;-10.91;100.00
62712;BME280;48772;55.586;37.730;2023-12-14T07:48:24;100012.09;;;-10.82;100.00
62712;BME280;48772;55.586;37.730;2023-12-14T07:50:50;100029.34;;;-10.75;100.00
62712;BME280;48772;55.586;37.730;2023-12-14T07:53:17;100006.06;;;-10.83;100.00
62712;BME280;48772;55.586;37.730;2023-12-14T07:55:43;100012.19;;;-10.76;100.00
62712;BME280;48772;55.586;37.730;2023-12-14T07:58:09;99918.06;;;-11.31;100.00
62712;BME280;48772;55.586;37.730;2023-12-14T08:00:35;100030.28;;;-10.67;100.00
62712;BME280;48772;55.586;37.730;2023-12-14T08:03:01;100014.84;;;-10.64;100.00
62712;BME280;48772;55.586;37.730;2023-12-14T08:05:27;100022.63;;;-10.61;100.00
62712;BME280;48772;55.586;37.730;2023-12-14T08:07:53;99967.25;;;-11.03;100.00
62712;BME280;48772;55.586;37.730;2023-12-14T08:10:19;100023.50;;;-10.58;100.00
62712;BME280;48772;55.586;37.730;2023-12-14T08:12:46;100008.00;;;-10.62;100.00
62712;BME280;48772;55.586;37.730;2023-12-14T08:15:14;100022.78;;;-10.42;100.00
62712;BME280;48772;55.586;37.730;2023-12-14T08:17:40;100013.13;;;-10.65;100.00
62712;BME280;48772;55.586;37.730;2023-12-14T08:20:07;99986.56;;;-10.60;100.00
62712;BME280;48772;55.586;37.730;2023-12-14T08:22:35;100007.25;;;-10.49;100.00
62712;BME280;48772;55.586;37.730;2023-12-14T08:25:01;100016.84;;;-10.32;100.00
62712;BME280;48772;55.586;37.730;2023-12-14T08:27:30;99977.22;;;-10.50;100.00
62712;BME280;48772;55.586;37.730;2023-12-14T08:29:56;100014.31;;;-10.27;100.00
62712;BME280;48772;55.586;37.730;2023-12-14T08:32:22;99993.56;;;-10.45;100.00
62712;BME280;48772;55.586;37.730;2023-12-14T08:34:48;100014.22;;;-10.39;100.00
62712;BME280;48772;55.586;37.730;2023-12-14T08:37:14;100032.31;;;-10.33;100.00
62712;BME280;48772;55.586;37.730;2023-12-14T08:39:40;100023.59;;;-10.49;100.00
62712;BME280;48772;55.586;37.730;2023-12-14T08:42:08;100028.84;;;-10.37;100.00
62712;BME280;48772;55.586;37.730;2023-12-14T08:44:34;99941.69;;;-10.88;100.00
62712;BME280;48772;55.586;37.730;2023-12-14T08:47:00;99997.03;;;-10.39;100.00
62712;BME280;48772;55.586;37.730;2023-12-14T08:49:28;99990.13;;;-10.44;100.00
62712;BME280;48772;55.586;37.730;2023-12-14T08:51:54;100013.41;;;-10.35;100.00
62712;BME280;48772;55.586;37.730;2023-12-14T08:54:20;100020.34;;;-10.24;100.00
62712;BME280;48772;55.586;37.730;2023-12-14T08:56:46;99951.44;;;-10.52;100.00
62712;BME280;48772;55.586;37.730;2023-12-14T08:59:13;99980.75;;;-10.33;100.00
62712;BME280;48772;55.586;37.730;2023-12-14T09:01:39;99987.66;;;-10.29;100.00
62712;BME280;48772;55.586;37.730;2023-12-14T09:04:05;100002.41;;;-10.15;100.00
62712;BME280;48772;55.586;37.730;2023-12-14T09:06:31;99978.22;;;-10.30;100.00
62712;BME280;48772;55.586;37.730;2023-12-14T09:08:57;99933.34;;;-10.56;100.00
62712;BME280;48772;55.586;37.730;2023-12-14T09:11:23;99958.38;;;-10.43;100.00
62712;BME280;48772;55.586;37.730;2023-12-14T09:13:49;99937.72;;;-10.48;100.00
62712;BME280;48772;55.586;37.730;2023-12-14T09:16:19;100001.59;;;-10.03;100.00
62712;BME280;48772;55.586;37.730;2023-12-14T09:18:45;99993.00;;;-10.02;100.00
62712;BME280;48772;55.586;37.730;2023-12-14T09:21:11;99992.19;;;-9.97;100.00
62712;BME280;48772;55.586;37.730;2023-12-14T09:23:37;99998.25;;;-9.86;100.00
62712;BME280;48772;55.586;37.730;2023-12-14T09:26:03;100004.25;;;-9.85;100.00
62712;BME280;48772;55.586;37.730;2023-12-14T09:28:29;100023.13;;;-9.95;100.00
62712;BME280;48772;55.586;37.730;2023-12-14T09:30:55;100025.69;;;-9.97;100.00
62712;BME280;48772;55.586;37.730;2023-12-14T09:33:21;100017.91;;;-10.07;100.00
62712;BME280;48772;55.586;37.730;2023-12-14T09:35:47;100018.78;;;-10.01;100.00
62712;BME280;48772;55.586;37.730;2023-12-14T09:38:13;100029.97;;;-10.03;100.00
62712;BME280;48772;55.586;37.730;2023-12-14T09:40:43;99995.47;;;-10.20;100.00
62712;BME280;48772;55.586;37.730;2023-12-14T09:43:10;100019.59;;;-10.11;100.00
62712;BME280;48772;55.586;37.730;2023-12-14T09:45:38;100017.91;;;-10.04;100.00
62712;BME280;48772;55.586;37.730;2023-12-14T09:48:09;100010.09;;;-10.18;100.00
62712;BME280;48772;55.586;37.730;2023-12-14T09:50:37;99967.84;;;-10.39;100.00
62712;BME280;48772;55.586;37.730;2023-12-14T09:53:04;100019.53;;;-10.18;100.00
62712;BME280;48772;55.586;37.730;2023-12-14T09:55:30;100024.78;;;-10.09;100.00
62712;BME280;48772;55.586;37.730;2023-12-14T09:57:57;99982.50;;;-10.34;100.00
62712;BME280;48772;55.586;37.730;2023-12-14T10:00:37;100017.94;;;-9.98;100.00
62712;BME280;48772;55.586;37.730;2023-12-14T10:03:24;100015.34;;;-10.09;100.00
62712;BME280;48772;55.586;37.730;2023-12-14T10:05:53;100013.63;;;-10.01;100.00
62712;BME280;48772;55.586;37.730;2023-12-14T10:08:19;99987.84;;;-10.02;100.00
62712;BME280;48772;55.586;37.730;2023-12-14T10:10:47;99989.63;;;-9.88;100.00
62712;BME280;48772;55.586;37.730;2023-12-14T10:13:15;99955.19;;;-10.05;100.00
62712;BME280;48772;55.586;37.730;2023-12-14T10:15:45;99983.59;;;-9.96;100.00
62712;BME280;48772;55.586;37.730;2023-12-14T10:18:21;99913.75;;;-10.33;100.00
62712;BME280;48772;55.586;37.730;2023-12-14T10:20:49;99982.84;;;-9.75;100.00
62712;BME280;48772;55.586;37.730;2023-12-14T10:23:15;99938.81;;;-10.11;100.00
62712;BME280;48772;55.586;37.730;2023-12-14T10:25:42;99948.31;;;-10.09;100.00
62712;BME280;48772;55.586;37.730;2023-12-14T10:28:14;99977.59;;;-9.92;100.00
62712;BME280;48772;55.586;37.730;2023-12-14T10:30:41;99941.41;;;-10.14;100.00
62712;BME280;48772;55.586;37.730;2023-12-14T10:33:10;99974.97;;;-9.96;100.00
62712;BME280;48772;55.586;37.730;2023-12-14T10:35:36;99968.09;;;-10.03;100.00
62712;BME280;48772;55.586;37.730;2023-12-14T10:38:05;99990.56;;;-9.81;100.00
62712;BME280;48772;55.586;37.730;2023-12-14T10:40:34;99938.84;;;-10.04;100.00
62712;BME280;48772;55.586;37.730;2023-12-14T10:43:06;99973.31;;;-9.85;100.00
62712;BME280;48772;55.586;37.730;2023-12-14T10:45:35;99976.78;;;-9.83;100.00
62712;BME280;48772;55.586;37.730;2023-12-14T10:48:03;99974.25;;;-9.79;100.00
62712;BME280;48772;55.586;37.730;2023-12-14T10:50:30;99973.34;;;-9.82;100.00
62712;BME280;48772;55.586;37.730;2023-12-14T10:53:00;99922.53;;;-10.01;100.00
62712;BME280;48772;55.586;37.730;2023-12-14T10:55:33;99928.56;;;-9.96;100.00
62712;BME280;48772;55.586;37.730;2023-12-14T10:58:03;99925.16;;;-9.92;100.00
62712;BME280;48772;55.586;37.730;2023-12-14T11:00:33;99915.69;;;-9.98;100.00
62712;BME280;48772;55.586;37.730;2023-12-14T11:02:59;99944.13;;;-9.78;100.00
62712;BME280;48772;55.586;37.730;2023-12-14T11:05:27;99892.47;;;-10.05;100.00
62712;BME280;48772;55.586;37.730;2023-12-14T11:10:53;99941.53;;;-9.84;100.00
62712;BME280;48772;55.586;37.730;2023-12-14T11:13:22;99945.00;;;-9.78;100.00
62712;BME280;48772;55.586;37.730;2023-12-14T11:15:51;99934.66;;;-9.84;100.00
62712;BME280;48772;55.586;37.730;2023-12-14T11:25:42;99957.03;;;-9.77;100.00
62712;BME280;48772;55.586;37.730;2023-12-14T11:28:08;99949.28;;;-9.81;100.00
62712;BME280;48772;55.586;37.730;2023-12-14T11:30:35;99951.91;;;-9.74;100.00
62712;BME280;48772;55.586;37.730;2023-12-14T11:33:02;99926.91;;;-9.84;100.00
62712;BME280;48772;55.586;37.730;2023-12-14T11:35:28;99962.19;;;-9.75;100.00
62712;BME280;48772;55.586;37.730;2023-12-14T11:37:55;99945.03;;;-9.73;100.00
62712;BME280;48772;55.586;37.730;2023-12-14T11:40:23;99901.94;;;-9.95;100.00
62712;BME280;48772;55.586;37.730;2023-12-14T11:43:02;99939.81;;;-9.88;100.00
62712;BME280;48772;55.586;37.730;2023-12-14T11:45:37;99945.81;;;-9.86;100.00
62712;BME280;48772;55.586;37.730;2023-12-14T11:48:04;99912.19;;;-10.04;100.00
62712;BME280;48772;55.586;37.730;2023-12-14T11:50:32;99888.13;;;-10.12;100.00
62712;BME280;48772;55.586;37.730;2023-12-14T11:53:01;99938.97;;;-9.84;100.00
62712;BME280;48772;55.586;37.730;2023-12-14T11:55:30;99910.47;;;-10.10;100.00
62712;BME280;48772;55.586;37.730;2023-12-14T11:57:57;99952.69;;;-9.85;100.00
62712;BME280;48772;55.586;37.730;2023-12-14T12:00:28;99951.84;;;-9.87;100.00
62712;BME280;48772;55.586;37.730;2023-12-14T12:03:14;99957.00;;;-9.86;100.00
62712;BME280;48772;55.586;37.730;2023-12-14T12:05:42;99960.44;;;-9.84;100.00
62712;BME280;48772;55.586;37.730;2023-12-14T12:08:09;99931.97;;;-10.02;100.00
62712;BME280;48772;55.586;37.730;2023-12-14T12:10:40;99961.28;;;-9.92;100.00
62712;BME280;48772;55.586;37.730;2023-12-14T12:13:11;99974.22;;;-9.82;100.00
62712;BME280;48772;55.586;37.730;2023-12-14T12:15:38;99931.13;;;-10.05;100.00
62712;BME280;48772;55.586;37.730;2023-12-14T12:18:17;99963.81;;;-9.97;100.00
62712;BME280;48772;55.586;37.730;2023-12-14T12:20:43;99951.78;;;-9.92;100.00
62712;BME280;48772;55.586;37.730;2023-12-14T12:23:09;99949.22;;;-9.93;100.00
62712;BME280;48772;55.586;37.730;2023-12-14T12:25:35;99953.53;;;-9.88;100.00
62712;BME280;48772;55.586;37.730;2023-12-14T12:28:02;99961.28;;;-9.86;100.00
62712;BME280;48772;55.586;37.730;2023-12-14T12:30:29;99938.00;;;-10.01;100.00
62712;BME280;48772;55.586;37.730;2023-12-14T12:32:55;99898.38;;;-10.24;100.00
62712;BME280;48772;55.586;37.730;2023-12-14T12:35:23;99944.00;;;-10.08;100.00
62712;BME280;48772;55.586;37.730;2023-12-14T12:37:50;99967.25;;;-9.93;100.00
62712;BME280;48772;55.586;37.730;2023-12-14T12:40:21;99967.25;;;-9.95;100.00
62712;BME280;48772;55.586;37.730;2023-12-14T12:42:49;99931.94;;;-10.12;100.00